Time;durP1;ratioP1;P1;durP2;ratioP2;P2;SDS_P1;SDS_P2;PMS_P1;PMS_P2;Temp;Humidity;BMP_temperature;BMP_pressure;BME280_temperature;BME280_humidity;BME280_pressure;Samples;Min_cycle;Max_cycle;Signal;HPM_P1;HPM_P2
2021/05/08 00:00:47;;;;;;;3.92;3.40;;;;;;;11.99;84.02;98665.29;1778560;78;21595;-68
2021/05/08 00:03:15;;;;;;;4.80;3.08;;;;;;;11.97;83.95;98655.33;1780616;78;25671;-71
2021/05/08 00:05:43;;;;;;;3.50;3.20;;;;;;;11.97;84.04;98645.27;1776695;78;21674;-68
2021/05/08 00:08:11;;;;;;;4.10;3.50;;;;;;;12.05;84.00;98641.66;1775084;78;21551;-69
2021/05/08 00:10:39;;;;;;;5.78;3.25;;;;;;;12.15;83.67;98645.41;1781131;78;21831;-67
2021/05/08 00:13:07;;;;;;;;;;;;;;;12.19;83.38;98638.14;1783513;78;21189;-68
2021/05/08 00:15:36;;;;;;;3.35;3.05;;;;;;;12.12;83.39;98636.37;1778380;78;20221;-68
2021/05/08 00:18:05;;;;;;;5.85;3.55;;;;;;;12.08;83.16;98643.63;1778527;78;21977;-68
2021/05/08 00:20:33;;;;;;;4.03;3.60;;;;;;;12.10;83.06;98646.65;1771053;78;21578;-69
2021/05/08 00:23:01;;;;;;;6.53;3.92;;;;;;;12.12;82.87;98639.48;1776007;78;22419;-68
2021/05/08 00:25:30;;;;;;;5.12;3.77;;;;;;;12.06;82.72;98635.46;1778966;78;21189;-69
2021/05/08 00:27:58;;;;;;;;;;;;;;;11.99;82.70;98652.12;1783513;78;21621;-68
2021/05/08 00:30:26;;;;;;;;;;;;;;;11.96;82.85;98664.64;1783523;78;20482;-67
2021/05/08 00:32:53;;;;;;;4.97;3.47;;;;;;;12.00;82.64;98674.06;1755049;80;20479;-68
2021/05/08 00:35:21;;;;;;;;;;;;;;;11.84;82.81;98663.12;1786608;78;22078;-68
2021/05/08 00:37:50;;;;;;;3.87;3.58;;;;;;;11.72;83.41;98644.66;1781973;78;20780;-68
2021/05/08 00:40:18;;;;;;;5.50;3.70;;;;;;;11.64;83.53;98638.08;1783270;78;21259;-68
2021/05/08 00:42:46;;;;;;;3.70;3.40;;;;;;;11.69;83.80;98633.83;1774229;78;21572;-68
2021/05/08 00:45:15;;;;;;;4.35;3.90;;;;;;;11.76;83.80;98648.30;1778449;78;21639;-68
2021/05/08 00:47:49;;;;;;;6.20;3.77;;;;;;;11.79;83.74;98654.70;1781771;78;22055;-68
2021/05/08 00:50:19;;;;;;;5.35;3.35;;;;;;;11.73;83.65;98650.28;1778457;78;21627;-66
2021/05/08 00:52:47;;;;;;;4.20;3.20;;;;;;;11.75;83.89;98636.06;1777846;78;21570;-68
2021/05/08 00:55:15;;;;;;;4.00;3.10;;;;;;;11.77;83.82;98624.98;1774284;78;21688;-68
2021/05/08 00:57:45;;;;;;;4.87;3.00;;;;;;;11.78;83.67;98641.14;1773661;78;21487;-69
2021/05/08 01:00:15;;;;;;;3.20;3.00;;;;;;;11.76;83.42;98648.78;1756255;78;22102;-68
2021/05/08 01:02:46;;;;;;;3.92;3.60;;;;;;;11.75;83.57;98652.34;1778818;78;21515;-67
2021/05/08 01:05:14;;;;;;;5.60;5.10;;;;;;;11.84;83.65;98645.17;1779180;78;21476;-67
2021/05/08 01:07:44;;;;;;;4.95;4.42;;;;;;;11.91;83.70;98634.66;1776560;78;21555;-68
2021/05/08 01:10:14;;;;;;;5.83;4.90;;;;;;;11.91;83.70;98633.82;1778285;78;21505;-68
2021/05/08 01:12:43;;;;;;;4.97;4.58;;;;;;;11.86;83.58;98628.80;1774211;78;21922;-69
2021/05/08 01:15:13;;;;;;;5.53;4.87;;;;;;;11.86;83.73;98638.85;1751214;78;21594;-69
2021/05/08 01:17:44;;;;;;;6.03;5.50;;;;;;;11.95;83.59;98636.14;1777656;78;21531;-69
2021/05/08 01:20:14;;;;;;;6.60;4.78;;;;;;;11.98;83.26;98638.59;1781093;78;21590;-69
2021/05/08 01:22:45;;;;;;;7.10;4.80;;;;;;;11.97;83.07;98641.31;1773025;78;21564;-67
2021/05/08 01:25:18;;;;;;;5.00;4.30;;;;;;;11.90;82.98;98647.44;1778880;78;22006;-68
2021/05/08 01:27:56;;;;;;;5.15;4.30;;;;;;;11.91;83.08;98648.31;1770198;78;21576;-68
2021/05/08 01:30:34;;;;;;;4.42;4.03;;;;;;;11.91;82.55;98646.52;1780147;78;21567;-68
2021/05/08 01:33:04;;;;;;;3.92;3.50;;;;;;;11.73;82.75;98648.96;1772486;78;21497;-67
2021/05/08 01:35:34;;;;;;;4.50;3.33;;;;;;;11.59;83.20;98656.42;1776747;78;21496;-67
2021/05/08 01:38:03;;;;;;;4.92;4.00;;;;;;;11.58;83.48;98651.61;1771955;78;22065;-69
2021/05/08 01:40:36;;;;;;;3.98;3.58;;;;;;;11.59;83.38;98649.84;1773512;78;21681;-67
2021/05/08 01:43:06;;;;;;;3.55;2.92;;;;;;;11.51;83.45;98654.27;1776845;78;21532;-69
2021/05/08 01:45:34;;;;;;;4.33;2.98;;;;;;;11.47;83.62;98661.96;1777975;78;21481;-66
2021/05/08 01:48:04;;;;;;;4.30;3.00;;;;;;;11.54;83.64;98663.27;1770167;78;21638;-67
2021/05/08 01:50:33;;;;;;;4.28;3.27;;;;;;;11.51;83.67;98668.75;1776806;78;22051;-66
2021/05/08 01:53:02;;;;;;;3.50;3.20;;;;;;;11.48;83.51;98666.30;1778625;78;21602;-67
2021/05/08 01:55:30;;;;;;;5.53;3.10;;;;;;;11.42;83.73;98663.58;1762767;78;21571;-67
2021/05/08 01:58:00;;;;;;;3.40;3.10;;;;;;;11.48;83.85;98661.88;1775622;78;21701;-67
2021/05/08 02:00:33;;;;;;;3.75;3.05;;;;;;;11.48;83.54;98655.29;1772422;78;21464;-67
2021/05/08 02:03:02;;;;;;;3.83;2.80;;;;;;;11.38;83.69;98649.40;1770413;78;22027;-70
2021/05/08 02:05:34;;;;;;;4.60;2.62;;;;;;;11.34;83.95;98648.74;1777150;78;21607;-67
2021/05/08 02:08:13;;;;;;;3.85;2.70;;;;;;;11.47;83.94;98652.75;1833642;75;23250;-65
2021/05/08 02:10:46;;;;;;;4.42;3.00;;;;;;;11.47;83.79;98648.34;1746602;80;21192;-66
2021/05/08 02:13:15;;;;;;;3.20;2.83;;;;;;;11.43;83.70;98648.17;1787092;77;21924;-68
2021/05/08 02:15:45;;;;;;;3.80;3.25;;;;;;;11.43;83.56;98645.98;1784469;77;21587;-68
2021/05/08 02:18:14;;;;;;;7.85;3.12;;;;;;;11.43;83.73;98652.12;1780036;77;21489;-68
2021/05/08 02:20:44;;;;;;;3.98;2.65;;;;;;;11.46;83.56;98656.34;1787376;78;21057;-68
2021/05/08 02:23:15;;;;;;;3.85;3.45;;;;;;;11.39;83.56;98657.65;1792179;77;21035;-68
2021/05/08 02:25:45;;;;;;;3.65;3.33;;;;;;;11.32;83.76;98648.44;1784524;77;21934;-68
2021/05/08 02:28:16;;;;;;;3.87;3.50;;;;;;;11.34;83.99;98646.11;1795597;77;21645;-70
2021/05/08 02:30:44;;;;;;;4.42;3.33;;;;;;;11.40;83.91;98646.20;1794404;77;21666;-68
2021/05/08 02:33:14;;;;;;;4.15;3.15;;;;;;;11.42;83.89;98647.78;1797119;77;21460;-68
2021/05/08 02:35:42;;;;;;;4.75;3.40;;;;;;;11.41;83.68;98651.82;1756289;79;21464;-68
2021/05/08 02:38:11;;;;;;;3.45;3.15;;;;;;;11.32;83.83;98644.49;1802390;77;22051;-68
2021/05/08 02:40:39;;;;;;;3.67;3.37;;;;;;;11.35;83.97;98635.94;1785059;77;21656;-67
2021/05/08 02:43:09;;;;;;;3.60;3.30;;;;;;;11.45;83.95;98630.49;1799863;77;21644;-68
2021/05/08 02:45:39;;;;;;;3.70;3.40;;;;;;;11.49;83.75;98637.73;1782633;78;21488;-67
2021/05/08 02:48:07;;;;;;;;;;;;;;;11.46;83.55;98649.28;1784164;77;21548;-67
2021/05/08 02:50:37;;;;;;;3.37;3.08;;;;;;;11.41;83.65;98650.50;1779557;78;21168;-66
2021/05/08 02:53:18;;;;;;;4.72;3.60;;;;;;;11.46;83.63;98653.70;1759334;79;21634;-67
2021/05/08 02:55:47;;;;;;;5.67;3.60;;;;;;;11.43;83.51;98652.12;1765074;79;21592;-67
2021/05/08 02:58:16;;;;;;;6.05;3.52;;;;;;;11.40;83.58;98640.94;1761754;79;21181;-64
2021/05/08 03:00:46;;;;;;;3.95;3.47;;;;;;;11.39;83.61;98625.59;1773682;79;21591;-65
2021/05/08 03:03:14;;;;;;;5.50;3.00;;;;;;;11.43;83.83;98605.19;1772220;79;21976;-66
2021/05/08 03:05:45;;;;;;;3.67;3.37;;;;;;;11.53;83.65;98610.27;1757624;80;21567;-66
2021/05/08 03:08:16;;;;;;;3.67;3.25;;;;;;;11.54;83.28;98634.80;1769211;79;21570;-66
2021/05/08 03:10:46;;;;;;;4.55;3.12;;;;;;;11.49;82.86;98650.41;1773638;79;21642;-67
2021/05/08 03:13:16;;;;;;;4.15;3.12;;;;;;;11.36;83.47;98652.12;1761775;80;21622;-66
2021/05/08 03:15:45;;;;;;;4.08;3.30;;;;;;;11.40;83.55;98647.52;1761471;80;22099;-66
2021/05/08 03:18:13;;;;;;;3.60;3.30;;;;;;;11.38;83.31;98644.97;1761533;79;21480;-66
2021/05/08 03:20:42;;;;;;;3.12;2.85;;;;;;;11.28;83.67;98646.46;1761718;80;21046;-66
2021/05/08 03:23:11;;;;;;;4.53;2.85;;;;;;;11.35;84.02;98650.89;1761167;80;21568;-65
2021/05/08 03:25:39;;;;;;;3.70;2.90;;;;;;;11.36;84.04;98652.12;1762146;80;21607;-65
2021/05/08 03:28:10;;;;;;;4.20;3.27;;;;;;;11.37;84.02;98659.53;1760993;80;21623;-66
2021/05/08 03:30:38;;;;;;;3.65;3.25;;;;;;;11.33;84.03;98650.14;1761746;79;21500;-66
2021/05/08 03:33:08;;;;;;;4.72;3.25;;;;;;;11.33;84.51;98648.34;1759858;79;21620;-66
2021/05/08 03:35:36;;;;;;;6.25;3.33;;;;;;;11.45;84.43;98642.78;1733354;80;21161;-69
2021/05/08 03:38:04;;;;;;;3.77;3.47;;;;;;;11.43;84.04;98640.72;1767778;79;21671;-65
2021/05/08 03:40:32;;;;;;;3.58;3.27;;;;;;;11.32;84.25;98634.83;1762046;79;22076;-65
2021/05/08 03:43:01;;;;;;;5.40;3.55;;;;;;;11.36;84.33;98628.44;1767248;79;21571;-67
2021/05/08 03:45:32;;;;;;;5.22;3.37;;;;;;;11.43;84.50;98631.52;1759814;79;21473;-68
2021/05/08 03:48:05;;;;;;;4.08;3.62;;;;;;;11.43;84.17;98638.96;1760596;79;21686;-68
2021/05/08 03:50:33;;;;;;;5.67;3.98;;;;;;;11.41;84.18;98636.03;1763646;79;21484;-68
2021/05/08 03:53:01;;;;;;;3.72;3.37;;;;;;;11.36;84.41;98639.41;1729147;80;21957;-69
2021/05/08 03:55:31;;;;;;;4.55;3.58;;;;;;;11.50;84.46;98636.77;1759970;80;21074;-67
2021/05/08 03:57:59;;;;;;;4.10;3.62;;;;;;;11.52;83.88;98635.37;1769496;80;21584;-68
2021/05/08 04:00:27;;;;;;;5.28;3.60;;;;;;;11.44;84.03;98642.43;1763147;79;21543;-68
2021/05/08 04:02:55;;;;;;;3.83;3.50;;;;;;;11.40;84.49;98648.83;1757498;80;21580;-66
2021/05/08 04:05:32;;;;;;;9.18;7.97;;;;;;;11.51;84.37;98649.01;1758847;80;21935;-67
2021/05/08 04:08:01;;;;;;;5.62;4.62;;;;;;;11.46;84.41;98651.07;1753870;80;21131;-66
2021/05/08 04:10:29;;;;;;;4.97;3.95;;;;;;;11.41;84.37;98657.92;1761217;80;21591;-66
2021/05/08 04:12:57;;;;;;;4.33;3.92;;;;;;;11.45;84.72;98662.53;1745908;81;21102;-67
2021/05/08 04:15:26;;;;;;;7.00;4.60;;;;;;;11.54;84.53;98671.66;1762833;79;21111;-66
2021/05/08 04:17:54;;;;;;;5.50;5.00;;;;;;;11.45;84.50;98673.92;1756198;80;22186;-67
2021/05/08 04:20:22;;;;;;;3.22;3.02;;;;;;;11.35;84.54;98664.05;1755904;80;21686;-67
2021/05/08 04:22:50;;;;;;;4.47;3.58;;;;;;;11.37;85.07;98662.16;1739730;80;21520;-67
2021/05/08 04:25:18;;;;;;;;;;;;;;;11.42;85.06;98670.63;1766750;79;21492;-68
2021/05/08 04:27:47;;;;;;;4.67;3.83;;;;;;;11.46;84.65;98675.59;1769773;79;20473;-68
2021/05/08 04:30:17;;;;;;;3.55;3.25;;;;;;;11.38;84.58;98675.72;1761821;79;22004;-68
2021/05/08 04:32:46;;;;;;;4.35;3.70;;;;;;;11.44;85.02;98674.84;1772966;79;21612;-68
2021/05/08 04:35:14;;;;;;;5.75;3.92;;;;;;;11.48;85.09;98671.08;1768523;78;21182;-68
2021/05/08 04:37:41;;;;;;;;;;;;;;;11.49;84.88;98673.27;1762912;80;21610;-68
2021/05/08 04:40:10;;;;;;;4.35;3.98;;;;;;;11.40;85.22;98665.46;1770844;79;20483;-68
2021/05/08 04:42:38;;;;;;;4.20;3.27;;;;;;;11.44;85.10;98670.06;1769814;80;22302;-67
2021/05/08 04:45:07;;;;;;;7.03;3.95;;;;;;;11.49;85.51;98682.48;1752781;80;21154;-67
2021/05/08 04:47:35;;;;;;;5.50;5.00;;;;;;;11.60;84.99;98683.98;1768821;80;21544;-67
2021/05/08 04:50:04;;;;;;;;;;;;;;;11.50;85.23;98684.16;1757369;80;21110;-67
2021/05/08 04:52:32;;;;;;;7.75;5.42;;;;;;;11.50;85.10;98687.63;1751747;80;20221;-67
2021/05/08 04:55:00;;;;;;;6.17;4.92;;;;;;;11.58;85.32;98693.73;1776206;79;27089;-67
2021/05/08 04:57:28;;;;;;;5.40;4.90;;;;;;;11.62;84.81;98700.52;1763534;79;21686;-66
2021/05/08 04:59:57;;;;;;;8.08;5.30;;;;;;;11.57;84.72;98709.64;1762000;79;21559;-67
2021/05/08 05:02:25;;;;;;;4.97;4.58;;;;;;;11.62;84.45;98708.42;1770455;79;21594;-68
2021/05/08 05:04:53;;;;;;;6.25;5.08;;;;;;;11.55;84.40;98708.42;1775278;79;21519;-69
2021/05/08 05:07:21;;;;;;;7.22;5.30;;;;;;;11.67;83.88;98705.48;1773315;79;22441;-59
2021/05/08 05:09:49;;;;;;;5.95;5.30;;;;;;;11.64;84.25;98709.17;1761099;80;21508;-59
2021/05/08 05:12:18;;;;;;;5.35;4.85;;;;;;;11.61;84.23;98706.72;1763314;79;21551;-58
2021/05/08 05:14:46;;;;;;;5.62;5.15;;;;;;;11.65;84.66;98700.79;1775455;79;21678;-57
2021/05/08 05:17:14;;;;;;;5.40;4.90;;;;;;;11.68;84.73;98700.13;1762707;79;21709;-59
2021/05/08 05:19:42;;;;;;;5.97;5.47;;;;;;;11.74;84.69;98704.66;1763223;80;21903;-57
2021/05/08 05:22:10;;;;;;;6.00;5.50;;;;;;;11.75;84.26;98698.42;1761811;80;21537;-59
2021/05/08 05:24:37;;;;;;;5.97;5.35;;;;;;;11.73;84.57;98714.80;1761354;80;21606;-58
2021/05/08 05:27:05;;;;;;;5.85;5.15;;;;;;;11.85;83.96;98720.63;1775842;79;21647;-60
2021/05/08 05:29:33;;;;;;;6.30;5.70;;;;;;;11.85;83.86;98716.19;1757486;79;21469;-58
2021/05/08 05:32:02;;;;;;;6.05;5.45;;;;;;;11.80;83.90;98724.01;1764654;79;22169;-59
2021/05/08 05:34:30;;;;;;;8.35;5.10;;;;;;;11.90;83.33;98730.41;1761153;80;21591;-59
2021/05/08 05:37:00;;;;;;;6.50;5.87;;;;;;;12.00;81.66;98732.86;1750869;80;21535;-59
2021/05/08 05:39:28;;;;;;;5.30;4.90;;;;;;;11.95;81.71;98730.14;1758887;79;21694;-60
2021/05/08 05:41:56;;;;;;;4.65;4.25;;;;;;;11.78;82.46;98731.16;1768588;79;21539;-62
2021/05/08 05:44:24;;;;;;;5.65;4.25;;;;;;;11.87;82.86;98733.22;1774764;79;21658;-61
2021/05/08 05:46:52;;;;;;;4.45;4.08;;;;;;;11.87;82.51;98734.06;1771730;79;21684;-62
2021/05/08 05:49:21;;;;;;;4.08;3.77;;;;;;;11.89;82.43;98723.44;1764455;79;22120;-62
2021/05/08 05:51:49;;;;;;;6.40;3.83;;;;;;;11.89;81.53;98728.70;1775634;79;21563;-61
2021/05/08 05:55:43;;;;;;;5.67;3.90;;;;;;;12.02;81.69;98715.64;1743999;79;23158;-66
2021/05/08 05:58:11;;;;;;;3.45;3.15;;;;;;;11.89;80.62;98720.80;1716865;80;21067;-66
2021/05/08 06:00:38;;;;;;;;;;;;;;;11.96;80.91;98726.55;1715834;80;21497;-63
2021/05/08 06:03:06;;;;;;;5.17;3.72;;;;;;;11.79;80.97;98736.34;1717140;80;20634;-66
2021/05/08 06:05:34;;;;;;;5.20;3.67;;;;;;;11.77;81.36;98736.04;1722054;80;21572;-68
2021/05/08 06:08:18;;;;;;;3.72;3.42;;;;;;;11.77;80.92;98740.86;1715599;82;21521;-63
2021/05/08 06:10:57;;;;;;;3.65;3.27;;;;;;;11.69;80.65;98745.25;1688276;82;21552;-65
2021/05/08 06:13:27;;;;;;;3.25;3.02;;;;;;;11.52;81.68;98745.92;1720326;82;21925;-64
2021/05/08 06:15:55;;;;;;;3.67;3.10;;;;;;;11.65;81.31;98754.29;1713106;82;21209;-63
2021/05/08 06:18:24;;;;;;;3.30;3.05;;;;;;;11.49;80.75;98750.44;1719370;80;21602;-63
2021/05/08 06:20:52;;;;;;;3.22;2.92;;;;;;;11.27;81.01;98745.63;1713748;80;21628;-63
2021/05/08 06:23:20;;;;;;;2.80;2.60;;;;;;;11.29;81.26;98755.58;1713620;82;21593;-65
2021/05/08 06:25:48;;;;;;;6.80;2.80;;;;;;;11.27;80.81;98756.63;1713619;80;21620;-63
2021/05/08 06:28:17;;;;;;;2.58;2.37;;;;;;;11.09;81.76;98750.20;1719039;80;21947;-63
2021/05/08 06:30:46;;;;;;;4.30;2.45;;;;;;;11.12;81.56;98746.54;1720433;82;21151;-63
2021/05/08 06:33:14;;;;;;;2.35;2.12;;;;;;;11.16;81.76;98756.41;1717144;82;21665;-63
2021/05/08 06:35:41;;;;;;;1.98;1.87;;;;;;;11.15;82.02;98757.34;1712315;82;21534;-63
2021/05/08 06:38:09;;;;;;;3.30;2.45;;;;;;;11.12;81.45;98766.75;1714978;80;22054;-62
2021/05/08 06:40:37;;;;;;;3.42;2.40;;;;;;;10.82;82.39;98771.53;1718644;82;25573;-61
2021/05/08 06:43:05;;;;;;;2.90;2.60;;;;;;;10.87;82.42;98769.50;1709888;82;21576;-63
2021/05/08 06:45:34;;;;;;;3.05;2.22;;;;;;;10.87;82.82;98780.02;1716257;82;21194;-63
2021/05/08 06:48:03;;;;;;;3.30;2.60;;;;;;;10.97;80.98;98779.01;1726104;80;21647;-59
2021/05/08 06:50:30;;;;;;;2.50;2.30;;;;;;;10.75;81.33;98784.65;1712972;80;21931;-58
2021/05/08 06:53:18;;;;;;;2.87;2.37;;;;;;;11.07;80.83;98785.41;1855961;75;22872;-69
2021/05/08 06:55:46;;;;;;;5.75;2.40;;;;;;;10.65;81.23;98798.31;1824178;77;21512;-64
2021/05/08 06:58:13;;;;;;;3.77;2.27;;;;;;;10.50;81.64;98796.08;1838771;76;21568;-66
2021/05/08 07:00:42;;;;;;;3.08;2.05;;;;;;;10.43;82.62;98810.48;1827108;77;21519;-68
2021/05/08 07:03:09;;;;;;;3.92;3.00;;;;;;;10.51;81.93;98797.79;1819369;76;28710;-67
2021/05/08 07:05:37;;;;;;;3.52;2.42;;;;;;;10.53;80.87;98808.22;1836280;77;21597;-67
2021/05/08 07:08:07;;;;;;;2.72;2.15;;;;;;;10.28;81.66;98813.49;1832742;76;27147;-66
2021/05/08 07:10:51;;;;;;;3.08;2.77;;;;;;;10.35;82.71;98815.33;1767776;79;22080;-62
2021/05/08 07:13:18;;;;;;;2.33;2.12;;;;;;;10.38;82.33;98827.00;1800926;78;21567;-64
2021/05/08 07:15:49;;;;;;;2.95;2.42;;;;;;;10.28;82.22;98824.44;1802721;78;21640;-68
2021/05/08 07:18:17;;;;;;;2.35;2.10;;;;;;;10.17;82.46;98830.75;1764155;79;21070;-66
2021/05/08 07:20:45;;;;;;;3.00;2.60;;;;;;;10.09;83.46;98835.94;1766701;79;21048;-66
2021/05/08 07:23:13;;;;;;;2.65;2.45;;;;;;;10.17;83.57;98834.24;1756237;79;22027;-63
2021/05/08 07:25:41;;;;;;;2.30;2.10;;;;;;;10.32;83.27;98845.70;1769369;79;24037;-64
2021/05/08 07:28:17;;;;;;;2.12;1.92;;;;;;;10.36;82.21;98839.81;1794006;78;21602;-65
2021/05/08 07:30:46;;;;;;;2.00;1.72;;;;;;;10.25;82.72;98837.77;1790026;78;21592;-64
2021/05/08 07:33:15;;;;;;;2.17;1.98;;;;;;;10.43;81.82;98844.66;1781756;79;21572;-65
2021/05/08 07:35:44;;;;;;;3.47;1.80;;;;;;;10.30;81.95;98853.70;1781045;79;21901;-65
2021/05/08 07:38:13;;;;;;;1.92;1.80;;;;;;;10.23;82.56;98871.16;1783301;79;21623;-64
2021/05/08 07:40:41;;;;;;;2.70;1.62;;;;;;;10.27;82.06;98881.88;1785292;79;21650;-65
2021/05/08 07:43:10;;;;;;;2.67;1.85;;;;;;;10.30;82.26;98885.63;1780243;79;21054;-64
2021/05/08 07:45:38;;;;;;;1.87;1.62;;;;;;;10.19;82.21;98888.86;1788711;79;21468;-66
2021/05/08 07:48:28;;;;;;;1.82;1.72;;;;;;;10.13;82.44;98891.34;1785868;79;22083;-64
2021/05/08 07:50:56;;;;;;;2.20;2.00;;;;;;;10.31;81.59;98891.32;1820546;77;21606;-64
2021/05/08 07:53:24;;;;;;;3.67;2.08;;;;;;;10.22;81.37;98898.34;1822509;77;27568;-63
2021/05/08 07:55:52;;;;;;;3.70;2.15;;;;;;;10.16;80.74;98906.56;1822024;77;21073;-64
2021/05/08 07:58:22;;;;;;;3.35;2.50;;;;;;;9.87;78.64;98911.53;1819445;78;21538;-64
2021/05/08 08:00:50;;;;;;;3.55;2.58;;;;;;;9.51;78.36;98921.66;1818866;78;22077;-62
2021/05/08 08:03:19;;;;;;;4.58;2.67;;;;;;;9.30;80.31;98920.48;1820050;77;21655;-62
2021/05/08 08:05:48;;;;;;;2.70;2.50;;;;;;;9.11;80.18;98931.02;1821314;77;21573;-63
2021/05/08 08:08:16;;;;;;;;;;;;;;;9.02;80.70;98931.92;1821880;77;21082;-65
2021/05/08 08:10:44;;;;;;;3.67;2.87;;;;;;;8.75;82.25;98928.38;1820052;77;20475;-64
2021/05/08 08:13:13;;;;;;;4.75;2.83;;;;;;;8.88;82.12;98937.83;1820624;77;21794;-64
2021/05/08 08:15:41;;;;;;;3.40;3.10;;;;;;;9.02;81.96;98947.19;1810326;77;21563;-66
2021/05/08 08:18:10;;;;;;;4.33;3.10;;;;;;;8.88;82.08;98944.39;1820375;77;21657;-64
2021/05/08 08:20:39;;;;;;;6.40;2.80;;;;;;;8.95;82.18;98942.72;1820203;77;21069;-64
2021/05/08 08:23:07;;;;;;;5.58;3.25;;;;;;;9.13;81.85;98939.66;1808174;77;21444;-63
2021/05/08 08:25:36;;;;;;;3.42;3.12;;;;;;;9.22;80.73;98951.49;1808935;77;22124;-64
2021/05/08 08:28:04;;;;;;;;;;;;;;;9.21;81.52;98957.67;1811452;77;21610;-64
2021/05/08 08:30:32;;;;;;;4.92;2.87;;;;;;;9.20;81.44;98961.68;1820122;77;20216;-64
2021/05/08 08:33:00;;;;;;;6.83;3.83;;;;;;;9.61;79.56;98962.75;1796900;77;21538;-64
2021/05/08 08:35:28;;;;;;;5.70;3.58;;;;;;;9.42;80.50;98964.09;1788760;78;21138;-64
2021/05/08 08:38:01;;;;;;;3.58;3.27;;;;;;;9.49;79.19;98971.62;1821441;77;22056;-65
2021/05/08 08:40:39;;;;;;;4.15;2.58;;;;;;;9.55;79.42;98977.87;1817199;77;21578;-68
2021/05/08 08:43:29;;;;;;;4.08;2.80;;;;;;;9.66;78.04;98977.34;1823973;76;21570;-62
2021/05/08 08:45:56;;;;;;;6.55;2.50;;;;;;;9.32;77.53;98992.11;1826698;77;21634;-60
2021/05/08 08:48:25;;;;;;;4.03;2.30;;;;;;;9.37;77.57;98991.04;1811945;77;21134;-62
2021/05/08 08:50:53;;;;;;;3.80;2.42;;;;;;;9.15;79.01;98995.98;1781675;78;21981;-61
2021/05/08 08:53:21;;;;;;;3.87;3.25;;;;;;;9.29;78.55;98989.63;1802254;77;21613;-59
2021/05/08 08:58:32;;;;;;;4.83;2.25;;;;;;;9.17;77.93;98998.06;1819643;75;22833;-60
2021/05/08 09:01:00;;;;;;;2.40;2.20;;;;;;;8.87;79.49;98998.60;1781498;79;21658;-58
2021/05/08 09:03:28;;;;;;;3.55;2.35;;;;;;;9.11;80.16;99004.92;1791222;77;21908;-58
2021/05/08 09:05:58;;;;;;;3.80;2.45;;;;;;;9.11;80.04;99006.23;1786119;79;21473;-58
2021/05/08 09:08:29;;;;;;;2.27;2.08;;;;;;;9.09;79.09;99005.45;1791022;77;21141;-59
2021/05/08 09:11:52;;;;;;;3.15;1.80;;;;;;;9.01;79.55;99014.99;1782038;79;21098;-58
2021/05/08 09:14:28;;;;;;;2.22;1.60;;;;;;;9.01;79.71;99017.61;1738981;81;21623;-59
2021/05/08 09:17:14;;;;;;;7.08;1.57;;;;;;;9.08;79.23;99012.92;1725991;81;21898;-58
2021/05/08 09:19:54;;;;;;;1.20;1.10;;;;;;;8.90;79.92;99014.64;1744563;80;21477;-57
2021/05/08 09:22:27;;;;;;;2.10;1.98;;;;;;;9.21;79.01;99015.39;1799366;78;21141;-57
2021/05/08 09:25:11;;;;;;;1.37;1.27;;;;;;;8.98;80.28;99018.22;1783426;78;21643;-59
2021/05/08 09:27:52;;;;;;;3.85;1.40;;;;;;;9.00;79.98;99016.37;1775361;78;21643;-59
2021/05/08 09:30:26;;;;;;;1.70;1.35;;;;;;;9.23;80.32;99015.28;1782458;78;22082;-58
2021/05/08 09:32:59;;;;;;;7.05;1.25;;;;;;;9.51;80.43;99016.13;1792221;78;21504;-59
2021/05/08 09:35:30;;;;;;;1.37;1.27;;;;;;;9.57;78.97;99026.35;1783330;78;21640;-60
2021/05/08 09:40:59;;;;;;;3.75;1.20;;;;;;;9.54;78.77;99032.58;1773718;78;22795;-57
2021/05/08 09:43:27;;;;;;;1.27;1.17;;;;;;;9.83;77.26;99032.95;1695997;82;21623;-56
2021/05/08 09:45:57;;;;;;;0.90;0.90;;;;;;;9.74;77.21;99038.66;1698609;81;22022;-57
2021/05/08 09:48:31;;;;;;;1.10;1.10;;;;;;;9.90;77.58;99033.02;1744027;79;21643;-58
2021/05/08 09:51:22;;;;;;;2.45;1.10;;;;;;;9.94;77.52;99040.28;1741164;79;21647;-60
2021/05/08 09:53:51;;;;;;;1.20;1.10;;;;;;;9.92;76.36;99042.13;1694973;82;21070;-56
2021/05/08 09:56:45;;;;;;;1.30;1.20;;;;;;;10.08;74.75;99042.23;1711499;81;21270;-56
2021/05/08 09:59:31;;;;;;;1.17;0.90;;;;;;;10.02;74.42;99046.02;1619164;82;21588;-57
2021/05/08 10:02:10;;;;;;;1.15;0.80;;;;;;;9.90;75.78;99051.87;1690163;81;21126;-59
2021/05/08 10:04:51;;;;;;;1.15;1.00;;;;;;;9.77;75.28;99049.45;1739545;79;21596;-58
2021/05/08 10:07:27;;;;;;;1.32;1.20;;;;;;;9.74;76.24;99044.75;1743183;80;21576;-57
2021/05/08 10:10:00;;;;;;;1.42;1.32;;;;;;;9.81;75.09;99044.44;1743768;79;21584;-58
2021/05/08 10:12:29;;;;;;;1.40;1.25;;;;;;;9.82;75.39;99054.88;1747740;80;21656;-58
2021/05/08 10:14:58;;;;;;;1.17;1.12;;;;;;;9.91;75.64;99066.71;1743124;80;21568;-58
2021/05/08 10:17:28;;;;;;;1.98;1.05;;;;;;;10.17;75.22;99065.86;1748706;79;21616;-56
2021/05/08 10:20:08;;;;;;;1.47;1.15;;;;;;;10.40;73.64;99073.95;1745178;80;21579;-58
2021/05/08 10:23:02;;;;;;;3.35;1.30;;;;;;;10.39;72.78;99080.95;1744719;79;21230;-58
2021/05/08 10:25:31;;;;;;;3.37;1.25;;;;;;;10.47;73.02;99089.76;1746287;79;22065;-58
2021/05/08 10:27:59;;;;;;;1.25;1.15;;;;;;;10.43;70.69;99075.92;1741043;79;21186;-61
2021/05/08 10:30:37;;;;;;;3.52;0.90;;;;;;;10.36;72.27;99090.77;1745875;80;21675;-59
2021/05/08 10:33:11;;;;;;;1.42;1.30;;;;;;;10.73;69.77;99080.53;1742726;79;21613;-59
2021/05/08 10:35:46;;;;;;;1.12;1.00;;;;;;;10.97;68.40;99081.49;1743833;80;21517;-58
2021/05/08 10:38:23;;;;;;;5.40;1.05;;;;;;;10.84;68.26;99066.82;1744429;79;21761;-58
2021/05/08 10:41:04;;;;;;;7.20;1.40;;;;;;;10.75;68.33;99065.52;1750959;79;21584;-58
2021/05/08 10:43:52;;;;;;;1.45;1.17;;;;;;;10.49;68.90;99087.45;1766304;78;21668;-58
2021/05/08 10:46:23;;;;;;;4.00;1.30;;;;;;;10.59;68.63;99084.36;1766686;78;21567;-58
2021/05/08 10:49:13;;;;;;;9.53;1.20;;;;;;;10.50;68.15;99104.06;1766994;78;21639;-58
2021/05/08 10:51:57;;;;;;;1.80;1.00;;;;;;;10.22;69.67;99100.16;1769577;78;21586;-58
2021/05/08 10:54:43;;;;;;;2.45;1.22;;;;;;;10.25;69.94;99105.75;1761377;80;21662;-59
2021/05/08 10:57:19;;;;;;;1.95;1.10;;;;;;;10.08;69.86;99119.25;1765855;78;21587;-60
2021/05/08 11:00:12;;;;;;;1.90;1.20;;;;;;;9.93;70.61;99116.06;1765894;80;21762;-59
2021/05/08 11:02:49;;;;;;;4.08;1.32;;;;;;;9.71;71.92;99116.23;1763539;78;21535;-59
2021/05/08 11:05:24;;;;;;;;;;;;;;;9.50;74.08;99135.16;1739224;80;21903;-59
2021/05/08 11:07:53;;;;;;;3.02;1.00;;;;;;;9.46;74.41;99136.23;1768999;79;20439;-59
2021/05/08 11:10:37;;;;;;;3.30;1.00;;;;;;;9.20;75.24;99152.69;1757836;78;21575;-59
2021/05/08 11:13:10;;;;;;;1.57;0.85;;;;;;;9.01;76.14;99140.02;1763799;80;21552;-60
2021/05/08 11:16:03;;;;;;;1.30;0.95;;;;;;;8.92;77.05;99146.04;1767856;78;21582;-60
2021/05/08 11:18:42;;;;;;;1.32;1.07;;;;;;;8.91;77.28;99149.59;1762371;78;22482;-59
2021/05/08 11:21:17;;;;;;;0.82;0.80;;;;;;;8.63;77.57;99157.80;1750946;79;21145;-60
2021/05/08 11:23:49;;;;;;;1.65;0.93;;;;;;;8.58;79.06;99157.98;1762757;78;21249;-59
2021/05/08 11:29:19;;;;;;;1.75;0.88;;;;;;;8.53;77.96;99173.06;1762348;80;21500;-60
2021/05/08 11:31:58;;;;;;;1.77;1.27;;;;;;;8.43;79.40;99182.20;1766005;80;21608;-60
2021/05/08 11:34:34;;;;;;;2.12;1.05;;;;;;;8.28;80.75;99165.31;1762995;80;21150;-60
2021/05/08 11:37:08;;;;;;;1.05;0.82;;;;;;;8.42;80.29;99182.27;1765952;80;21210;-65
2021/05/08 11:39:42;;;;;;;1.30;1.15;;;;;;;8.37;79.85;99178.04;1759544;80;21213;-65
2021/05/08 11:42:19;;;;;;;1.57;1.22;;;;;;;8.37;79.79;99200.30;1764591;80;21055;-62
2021/05/08 11:44:56;;;;;;;1.10;0.70;;;;;;;8.53;79.98;99190.53;1759999;80;21959;-63
2021/05/08 11:47:32;;;;;;;1.00;0.60;;;;;;;8.77;77.70;99189.50;1762645;80;21655;-62
2021/05/08 11:50:17;;;;;;;1.47;1.07;;;;;;;8.77;78.74;99197.36;1758744;80;21671;-63
2021/05/08 11:52:52;;;;;;;0.78;0.70;;;;;;;9.02;78.42;99213.34;1754206;80;21560;-62
2021/05/08 11:55:22;;;;;;;1.22;0.80;;;;;;;9.16;76.72;99199.19;1774318;80;21708;-61
2021/05/08 12:00:39;;;;;;;2.00;0.70;;;;;;;9.14;73.77;99222.48;1741897;79;21574;-59
2021/05/08 12:03:13;;;;;;;1.35;0.80;;;;;;;8.87;75.16;99214.89;1753131;79;21148;-61
2021/05/08 12:05:47;;;;;;;3.05;1.07;;;;;;;8.71;75.42;99228.23;1742580;81;21617;-60
2021/05/08 12:08:20;;;;;;;3.25;0.93;;;;;;;8.56;73.98;99238.43;1754282;79;21681;-61
2021/05/08 12:10:50;;;;;;;3.55;0.80;;;;;;;8.37;74.05;99250.08;1757335;79;21194;-61